sensor_id;sensor_type;location;lat;lon;timestamp;pressure;altitude;pressure_sealevel;temperature;humidity
53526;BME280;40551;50.478;19.378;2023-05-23T00:01:19;97735.27;;;10.49;71.23
53526;BME280;40551;50.478;19.378;2023-05-23T00:03:52;97728.81;;;10.49;71.20
53526;BME280;40551;50.478;19.378;2023-05-23T00:06:26;97727.59;;;10.49;71.21
53526;BME280;40551;50.478;19.378;2023-05-23T00:08:57;97722.60;;;10.49;71.12
53526;BME280;40551;50.478;19.378;2023-05-23T00:11:27;97722.22;;;10.47;71.04
53526;BME280;40551;50.478;19.378;2023-05-23T00:14:00;97719.34;;;10.40;71.15
53526;BME280;40551;50.478;19.378;2023-05-23T00:16:30;97712.39;;;10.39;71.31
53526;BME280;40551;50.478;19.378;2023-05-23T00:19:02;97716.74;;;10.33;71.28
53526;BME280;40551;50.478;19.378;2023-05-23T00:21:34;97711.13;;;10.32;71.44
53526;BME280;40551;50.478;19.378;2023-05-23T00:24:05;97711.66;;;10.30;71.28
53526;BME280;40551;50.478;19.378;2023-05-23T00:26:36;97711.02;;;10.23;71.72
53526;BME280;40551;50.478;19.378;2023-05-23T00:29:08;97708.45;;;10.21;71.62
53526;BME280;40551;50.478;19.378;2023-05-23T00:31:45;97702.67;;;10.19;71.87
53526;BME280;40551;50.478;19.378;2023-05-23T00:34:17;97703.92;;;10.19;71.82
53526;BME280;40551;50.478;19.378;2023-05-23T00:36:48;97699.23;;;10.19;71.89
53526;BME280;40551;50.478;19.378;2023-05-23T00:39:20;97702.64;;;10.19;72.03
53526;BME280;40551;50.478;19.378;2023-05-23T00:41:50;97698.86;;;10.19;72.14
53526;BME280;40551;50.478;19.378;2023-05-23T00:44:22;97698.56;;;10.15;72.56
53526;BME280;40551;50.478;19.378;2023-05-23T00:46:54;97700.05;;;10.16;72.37
53526;BME280;40551;50.478;19.378;2023-05-23T00:49:27;97698.48;;;10.12;72.64
53526;BME280;40551;50.478;19.378;2023-05-23T00:51:59;97696.02;;;10.12;72.53
53526;BME280;40551;50.478;19.378;2023-05-23T00:54:31;97691.48;;;10.11;72.63
53526;BME280;40551;50.478;19.378;2023-05-23T00:57:04;97694.76;;;10.07;72.44
53526;BME280;40551;50.478;19.378;2023-05-23T00:59:36;97693.58;;;10.05;72.42
53526;BME280;40551;50.478;19.378;2023-05-23T01:02:08;97699.64;;;10.03;72.53
53526;BME280;40551;50.478;19.378;2023-05-23T01:04:42;97694.88;;;10.01;72.81
53526;BME280;40551;50.478;19.378;2023-05-23T01:07:14;97697.52;;;10.01;72.57
53526;BME280;40551;50.478;19.378;2023-05-23T01:09:46;97701.06;;;9.98;72.56
53526;BME280;40551;50.478;19.378;2023-05-23T01:12:24;97701.00;;;9.93;72.46
53526;BME280;40551;50.478;19.378;2023-05-23T01:15:04;97698.89;;;9.88;72.18
53526;BME280;40551;50.478;19.378;2023-05-23T01:17:46;97697.06;;;9.80;72.07
53526;BME280;40551;50.478;19.378;2023-05-23T01:20:23;97694.48;;;9.72;72.36
53526;BME280;40551;50.478;19.378;2023-05-23T01:23:12;97691.23;;;9.66;72.30
53526;BME280;40551;50.478;19.378;2023-05-23T01:26:06;97690.05;;;9.60;72.48
53526;BME280;40551;50.478;19.378;2023-05-23T01:28:46;97689.65;;;9.54;72.68
53526;BME280;40551;50.478;19.378;2023-05-23T01:31:20;97691.48;;;9.51;72.80
53526;BME280;40551;50.478;19.378;2023-05-23T01:33:53;97687.92;;;9.50;72.79
53526;BME280;40551;50.478;19.378;2023-05-23T01:36:26;97685.55;;;9.50;72.79
53526;BME280;40551;50.478;19.378;2023-05-23T01:38:56;97682.31;;;9.49;72.93
53526;BME280;40551;50.478;19.378;2023-05-23T01:41:28;97679.70;;;9.43;72.98
53526;BME280;40551;50.478;19.378;2023-05-23T01:43:58;97678.27;;;9.44;73.17
53526;BME280;40551;50.478;19.378;2023-05-23T01:46:30;97677.94;;;9.38;73.20
53526;BME280;40551;50.478;19.378;2023-05-23T01:49:04;97678.33;;;9.37;73.32
53526;BME280;40551;50.478;19.378;2023-05-23T01:51:39;97681.27;;;9.35;73.44
53526;BME280;40551;50.478;19.378;2023-05-23T01:54:18;97681.97;;;9.33;73.53
53526;BME280;40551;50.478;19.378;2023-05-23T01:56:51;97681.90;;;9.31;73.54
53526;BME280;40551;50.478;19.378;2023-05-23T01:59:23;97681.33;;;9.30;73.72
53526;BME280;40551;50.478;19.378;2023-05-23T02:01:55;97680.71;;;9.31;73.95
53526;BME280;40551;50.478;19.378;2023-05-23T02:04:28;97679.05;;;9.33;73.99
53526;BME280;40551;50.478;19.378;2023-05-23T02:07:01;97681.26;;;9.33;73.93
53526;BME280;40551;50.478;19.378;2023-05-23T02:09:32;97678.60;;;9.32;73.81
53526;BME280;40551;50.478;19.378;2023-05-23T02:12:05;97675.84;;;9.30;73.65
53526;BME280;40551;50.478;19.378;2023-05-23T02:14:36;97673.60;;;9.25;73.47
53526;BME280;40551;50.478;19.378;2023-05-23T02:17:09;97674.44;;;9.20;73.42
53526;BME280;40551;50.478;19.378;2023-05-23T02:19:40;97671.65;;;9.16;73.49
53526;BME280;40551;50.478;19.378;2023-05-23T02:22:12;97671.72;;;9.13;73.51
53526;BME280;40551;50.478;19.378;2023-05-23T02:24:44;97672.67;;;9.10;73.41
53526;BME280;40551;50.478;19.378;2023-05-23T02:27:16;97670.86;;;9.09;73.47
53526;BME280;40551;50.478;19.378;2023-05-23T02:29:46;97674.22;;;9.08;73.52
53526;BME280;40551;50.478;19.378;2023-05-23T02:32:18;97672.45;;;9.00;73.75
53526;BME280;40551;50.478;19.378;2023-05-23T02:34:49;97667.95;;;8.98;73.75
53526;BME280;40551;50.478;19.378;2023-05-23T02:37:23;97665.13;;;8.97;74.03
53526;BME280;40551;50.478;19.378;2023-05-23T02:39:53;97669.11;;;8.97;74.05
53526;BME280;40551;50.478;19.378;2023-05-23T02:42:24;97665.02;;;8.90;74.29
53526;BME280;40551;50.478;19.378;2023-05-23T02:44:54;97662.84;;;8.87;74.11
53526;BME280;40551;50.478;19.378;2023-05-23T02:47:26;97658.11;;;8.80;74.41
53526;BME280;40551;50.478;19.378;2023-05-23T02:49:58;97657.43;;;8.82;74.56
53526;BME280;40551;50.478;19.378;2023-05-23T02:52:30;97659.80;;;8.84;74.62
53526;BME280;40551;50.478;19.378;2023-05-23T02:55:03;97663.69;;;8.87;75.00
53526;BME280;40551;50.478;19.378;2023-05-23T02:57:39;97660.71;;;8.92;75.03
53526;BME280;40551;50.478;19.378;2023-05-23T03:00:10;97659.23;;;8.97;75.12
53526;BME280;40551;50.478;19.378;2023-05-23T03:02:42;97658.04;;;8.99;75.27
53526;BME280;40551;50.478;19.378;2023-05-23T03:05:14;97655.01;;;9.06;75.32
53526;BME280;40551;50.478;19.378;2023-05-23T03:07:46;97658.79;;;9.15;75.47
53526;BME280;40551;50.478;19.378;2023-05-23T03:10:18;97657.78;;;9.26;75.59
53526;BME280;40551;50.478;19.378;2023-05-23T03:12:50;97653.42;;;9.41;75.81
53526;BME280;40551;50.478;19.378;2023-05-23T03:15:20;97656.12;;;9.56;75.74
53526;BME280;40551;50.478;19.378;2023-05-23T03:17:51;97647.30;;;9.64;75.73
53526;BME280;40551;50.478;19.378;2023-05-23T03:20:23;97649.59;;;9.75;75.26
53526;BME280;40551;50.478;19.378;2023-05-23T03:22:53;97642.98;;;10.03;75.76
53526;BME280;40551;50.478;19.378;2023-05-23T03:25:25;97644.40;;;10.43;76.59
53526;BME280;40551;50.478;19.378;2023-05-23T03:27:57;97640.82;;;10.95;76.42
53526;BME280;40551;50.478;19.378;2023-05-23T03:30:29;97636.46;;;11.47;75.88
53526;BME280;40551;50.478;19.378;2023-05-23T03:33:00;97635.67;;;12.03;75.45
53526;BME280;40551;50.478;19.378;2023-05-23T03:35:32;97637.52;;;12.58;74.52
53526;BME280;40551;50.478;19.378;2023-05-23T03:38:04;97640.22;;;13.09;73.54
53526;BME280;40551;50.478;19.378;2023-05-23T03:40:36;97640.73;;;13.57;72.35
53526;BME280;40551;50.478;19.378;2023-05-23T03:43:08;97637.19;;;14.06;71.35
53526;BME280;40551;50.478;19.378;2023-05-23T03:45:41;97627.94;;;14.48;69.95
53526;BME280;40551;50.478;19.378;2023-05-23T03:48:16;97628.19;;;14.96;69.14
53526;BME280;40551;50.478;19.378;2023-05-23T03:50:49;97628.14;;;15.49;68.26
53526;BME280;40551;50.478;19.378;2023-05-23T03:53:21;97622.95;;;16.01;67.33
53526;BME280;40551;50.478;19.378;2023-05-23T03:55:52;97622.40;;;16.55;66.45
53526;BME280;40551;50.478;19.378;2023-05-23T03:58:24;97622.71;;;17.03;65.26
53526;BME280;40551;50.478;19.378;2023-05-23T04:00:59;97624.65;;;17.57;63.98
53526;BME280;40551;50.478;19.378;2023-05-23T04:03:32;97621.29;;;18.14;63.08
53526;BME280;40551;50.478;19.378;2023-05-23T04:06:06;97615.90;;;18.69;61.90
53526;BME280;40551;50.478;19.378;2023-05-23T04:08:42;97614.95;;;19.28;60.36
53526;BME280;40551;50.478;19.378;2023-05-23T04:11:14;97611.98;;;19.82;59.10
53526;BME280;40551;50.478;19.378;2023-05-23T04:13:46;97609.04;;;20.36;57.71
53526;BME280;40551;50.478;19.378;2023-05-23T04:16:18;97610.92;;;20.86;56.20
53526;BME280;40551;50.478;19.378;2023-05-23T04:18:52;97613.34;;;21.33;55.22
53526;BME280;40551;50.478;19.378;2023-05-23T04:21:24;97614.16;;;21.80;53.69
53526;BME280;40551;50.478;19.378;2023-05-23T04:24:09;97608.50;;;22.27;52.46
53526;BME280;40551;50.478;19.378;2023-05-23T04:26:41;97603.59;;;22.64;51.57
53526;BME280;40551;50.478;19.378;2023-05-23T04:29:12;97604.52;;;22.99;51.17
53526;BME280;40551;50.478;19.378;2023-05-23T04:31:44;97606.07;;;23.33;50.44
53526;BME280;40551;50.478;19.378;2023-05-23T04:34:17;97603.39;;;23.61;49.62
53526;BME280;40551;50.478;19.378;2023-05-23T04:36:51;97601.63;;;23.96;48.52
53526;BME280;40551;50.478;19.378;2023-05-23T04:39:24;97597.33;;;24.22;47.49
53526;BME280;40551;50.478;19.378;2023-05-23T04:42:19;97597.77;;;24.51;47.12
53526;BME280;40551;50.478;19.378;2023-05-23T04:45:20;97598.25;;;24.90;46.56
53526;BME280;40551;50.478;19.378;2023-05-23T04:48:14;97600.42;;;25.34;45.58
53526;BME280;40551;50.478;19.378;2023-05-23T04:50:48;97601.05;;;25.66;44.62
53526;BME280;40551;50.478;19.378;2023-05-23T04:53:22;97604.55;;;25.97;43.81
53526;BME280;40551;50.478;19.378;2023-05-23T04:55:54;97603.70;;;26.07;42.48
53526;BME280;40551;50.478;19.378;2023-05-23T04:58:26;97599.02;;;26.27;41.89
53526;BME280;40551;50.478;19.378;2023-05-23T05:01:02;97598.23;;;26.49;41.45
53526;BME280;40551;50.478;19.378;2023-05-23T05:03:34;97595.58;;;26.84;41.21
53526;BME280;40551;50.478;19.378;2023-05-23T05:06:07;97600.14;;;27.16;40.51
53526;BME280;40551;50.478;19.378;2023-05-23T05:08:39;97597.73;;;27.51;39.95
53526;BME280;40551;50.478;19.378;2023-05-23T05:11:12;97597.33;;;27.93;39.07
53526;BME280;40551;50.478;19.378;2023-05-23T05:13:44;97599.03;;;28.23;38.14
53526;BME280;40551;50.478;19.378;2023-05-23T05:16:16;97597.63;;;28.47;37.69
53526;BME280;40551;50.478;19.378;2023-05-23T05:18:48;97594.80;;;28.69;37.11
53526;BME280;40551;50.478;19.378;2023-05-23T05:21:21;97596.19;;;28.70;36.08
53526;BME280;40551;50.478;19.378;2023-05-23T05:23:53;97593.03;;;28.55;35.45
53526;BME280;40551;50.478;19.378;2023-05-23T05:26:25;97589.92;;;28.54;35.15
53526;BME280;40551;50.478;19.378;2023-05-23T05:28:57;97590.67;;;28.70;35.39
53526;BME280;40551;50.478;19.378;2023-05-23T05:31:29;97588.08;;;28.67;34.62
53526;BME280;40551;50.478;19.378;2023-05-23T05:34:02;97589.67;;;28.82;34.98
53526;BME280;40551;50.478;19.378;2023-05-23T05:36:35;97587.17;;;29.14;34.61
53526;BME280;40551;50.478;19.378;2023-05-23T05:39:07;97587.73;;;29.17;33.34
53526;BME280;40551;50.478;19.378;2023-05-23T05:41:39;97586.93;;;29.19;33.48
53526;BME280;40551;50.478;19.378;2023-05-23T05:44:10;97586.77;;;29.28;33.33
53526;BME280;40551;50.478;19.378;2023-05-23T05:46:42;97585.50;;;29.40;33.14
53526;BME280;40551;50.478;19.378;2023-05-23T05:49:14;97586.36;;;29.25;32.44
53526;BME280;40551;50.478;19.378;2023-05-23T05:51:47;97584.88;;;29.29;32.82
53526;BME280;40551;50.478;19.378;2023-05-23T05:54:19;97585.27;;;29.67;33.06
53526;BME280;40551;50.478;19.378;2023-05-23T05:56:50;97580.27;;;29.90;32.30
53526;BME280;40551;50.478;19.378;2023-05-23T05:59:22;97580.77;;;30.06;32.01
53526;BME280;40551;50.478;19.378;2023-05-23T06:01:54;97582.22;;;30.09;31.58
53526;BME280;40551;50.478;19.378;2023-05-23T06:04:26;97579.17;;;30.41;31.52
53526;BME280;40551;50.478;19.378;2023-05-23T06:06:59;97577.45;;;30.52;30.41
53526;BME280;40551;50.478;19.378;2023-05-23T06:09:31;97579.81;;;30.40;29.03
53526;BME280;40551;50.478;19.378;2023-05-23T06:12:03;97573.67;;;29.90;28.87
53526;BME280;40551;50.478;19.378;2023-05-23T06:14:35;97570.08;;;29.43;28.28
53526;BME280;40551;50.478;19.378;2023-05-23T06:17:07;97564.64;;;28.80;28.57
53526;BME280;40551;50.478;19.378;2023-05-23T06:19:39;97561.45;;;28.92;30.07
53526;BME280;40551;50.478;19.378;2023-05-23T06:22:11;97559.14;;;29.26;30.41
53526;BME280;40551;50.478;19.378;2023-05-23T06:24:43;97562.01;;;29.69;30.45
53526;BME280;40551;50.478;19.378;2023-05-23T06:27:15;97562.96;;;30.25;30.36
53526;BME280;40551;50.478;19.378;2023-05-23T06:29:47;97554.48;;;30.66;29.73
53526;BME280;40551;50.478;19.378;2023-05-23T06:32:19;97553.52;;;31.05;29.66
53526;BME280;40551;50.478;19.378;2023-05-23T06:34:51;97555.82;;;31.48;29.21
53526;BME280;40551;50.478;19.378;2023-05-23T06:37:35;97555.11;;;31.75;28.43
53526;BME280;40551;50.478;19.378;2023-05-23T06:40:11;97555.20;;;31.78;28.15
53526;BME280;40551;50.478;19.378;2023-05-23T06:42:59;97555.43;;;32.09;28.33
53526;BME280;40551;50.478;19.378;2023-05-23T06:45:45;97556.33;;;32.49;27.56
53526;BME280;40551;50.478;19.378;2023-05-23T06:51:26;97551.53;;;32.70;26.76
53526;BME280;40551;50.478;19.378;2023-05-23T06:54:07;97550.77;;;32.90;26.84
53526;BME280;40551;50.478;19.378;2023-05-23T06:56:43;97545.95;;;32.96;26.20
53526;BME280;40551;50.478;19.378;2023-05-23T06:59:19;97548.63;;;32.94;26.06
53526;BME280;40551;50.478;19.378;2023-05-23T07:01:51;97543.67;;;32.84;25.60
53526;BME280;40551;50.478;19.378;2023-05-23T07:04:23;97547.52;;;32.45;25.07
53526;BME280;40551;50.478;19.378;2023-05-23T07:06:55;97545.23;;;31.97;25.61
53526;BME280;40551;50.478;19.378;2023-05-23T07:09:27;97542.84;;;31.78;25.25
53526;BME280;40551;50.478;19.378;2023-05-23T07:12:07;97544.54;;;31.45;25.82
53526;BME280;40551;50.478;19.378;2023-05-23T07:14:41;97542.02;;;31.15;25.27
53526;BME280;40551;50.478;19.378;2023-05-23T07:17:13;97542.27;;;30.32;24.60
53526;BME280;40551;50.478;19.378;2023-05-23T07:19:47;97542.23;;;29.60;25.78
53526;BME280;40551;50.478;19.378;2023-05-23T07:22:22;97541.70;;;29.10;25.71
53526;BME280;40551;50.478;19.378;2023-05-23T07:24:54;97537.70;;;28.36;26.55
53526;BME280;40551;50.478;19.378;2023-05-23T07:27:29;97538.67;;;27.79;27.25
53526;BME280;40551;50.478;19.378;2023-05-23T07:30:08;97536.88;;;27.28;27.84
53526;BME280;40551;50.478;19.378;2023-05-23T07:32:43;97537.84;;;26.82;28.47
53526;BME280;40551;50.478;19.378;2023-05-23T07:35:20;97531.60;;;26.34;28.17
53526;BME280;40551;50.478;19.378;2023-05-23T07:37:56;97533.46;;;25.72;28.37
53526;BME280;40551;50.478;19.378;2023-05-23T07:40:31;97533.79;;;25.28;29.15
53526;BME280;40551;50.478;19.378;2023-05-23T07:43:04;97537.27;;;24.88;29.29
53526;BME280;40551;50.478;19.378;2023-05-23T07:45:38;97535.16;;;24.45;30.05
53526;BME280;40551;50.478;19.378;2023-05-23T07:48:14;97530.27;;;24.10;30.70
53526;BME280;40551;50.478;19.378;2023-05-23T07:50:49;97527.55;;;24.03;31.66
53526;BME280;40551;50.478;19.378;2023-05-23T07:53:24;97526.73;;;24.06;32.30
53526;BME280;40551;50.478;19.378;2023-05-23T07:55:57;97527.69;;;24.09;32.13
53526;BME280;40551;50.478;19.378;2023-05-23T07:58:33;97531.04;;;23.89;31.75
53526;BME280;40551;50.478;19.378;2023-05-23T08:01:05;97531.09;;;23.64;31.80
53526;BME280;40551;50.478;19.378;2023-05-23T08:04:07;97535.12;;;23.46;32.66
53526;BME280;40551;50.478;19.378;2023-05-23T08:06:48;97531.85;;;23.21;31.93
53526;BME280;40551;50.478;19.378;2023-05-23T08:09:42;97529.56;;;22.91;32.21
53526;BME280;40551;50.478;19.378;2023-05-23T08:12:17;97530.55;;;22.65;32.70
53526;BME280;40551;50.478;19.378;2023-05-23T08:14:49;97526.58;;;22.37;33.05
53526;BME280;40551;50.478;19.378;2023-05-23T08:17:44;97523.31;;;22.19;33.17
53526;BME280;40551;50.478;19.378;2023-05-23T08:20:16;97518.55;;;22.06;33.78
53526;BME280;40551;50.478;19.378;2023-05-23T08:22:48;97524.37;;;22.09;34.99
53526;BME280;40551;50.478;19.378;2023-05-23T08:25:22;97521.64;;;22.18;34.50
53526;BME280;40551;50.478;19.378;2023-05-23T08:27:55;97519.76;;;22.20;34.23
53526;BME280;40551;50.478;19.378;2023-05-23T08:30:39;97524.21;;;22.25;34.03
53526;BME280;40551;50.478;19.378;2023-05-23T08:33:12;97527.09;;;22.21;33.81
53526;BME280;40551;50.478;19.378;2023-05-23T08:35:46;97518.92;;;22.19;34.17
53526;BME280;40551;50.478;19.378;2023-05-23T08:38:19;97522.89;;;22.21;34.43
53526;BME280;40551;50.478;19.378;2023-05-23T08:41:05;97520.73;;;22.20;34.24
53526;BME280;40551;50.478;19.378;2023-05-23T08:43:43;97519.90;;;22.18;34.21
53526;BME280;40551;50.478;19.378;2023-05-23T08:46:18;97518.53;;;22.22;35.00
53526;BME280;40551;50.478;19.378;2023-05-23T08:48:51;97522.73;;;22.34;34.54
53526;BME280;40551;50.478;19.378;2023-05-23T08:51:26;97518.30;;;22.43;34.19
53526;BME280;40551;50.478;19.378;2023-05-23T08:54:00;97519.92;;;22.39;33.10
53526;BME280;40551;50.478;19.378;2023-05-23T08:56:33;97516.27;;;22.29;33.67
53526;BME280;40551;50.478;19.378;2023-05-23T08:59:05;97517.55;;;22.22;34.07
53526;BME280;40551;50.478;19.378;2023-05-23T09:01:37;97512.64;;;22.20;33.69
53526;BME280;40551;50.478;19.378;2023-05-23T09:04:12;97508.89;;;22.25;34.37
53526;BME280;40551;50.478;19.378;2023-05-23T09:07:01;97512.35;;;22.38;34.70
53526;BME280;40551;50.478;19.378;2023-05-23T09:09:34;97512.80;;;22.46;34.92
53526;BME280;40551;50.478;19.378;2023-05-23T09:12:08;97513.50;;;22.50;34.83
53526;BME280;40551;50.478;19.378;2023-05-23T09:14:40;97509.56;;;22.52;35.25
53526;BME280;40551;50.478;19.378;2023-05-23T09:17:18;97517.69;;;22.61;35.08
53526;BME280;40551;50.478;19.378;2023-05-23T09:19:50;97513.91;;;22.60;34.86
53526;BME280;40551;50.478;19.378;2023-05-23T09:22:32;97509.41;;;22.58;34.94
53526;BME280;40551;50.478;19.378;2023-05-23T09:25:11;97511.73;;;22.62;34.94
53526;BME280;40551;50.478;19.378;2023-05-23T09:27:44;97510.55;;;22.65;34.92
53526;BME280;40551;50.478;19.378;2023-05-23T09:30:18;97505.05;;;22.69;34.57
53526;BME280;40551;50.478;19.378;2023-05-23T09:33:02;97503.42;;;22.77;34.89
53526;BME280;40551;50.478;19.378;2023-05-23T09:35:36;97503.64;;;22.94;34.91
53526;BME280;40551;50.478;19.378;2023-05-23T09:38:13;97506.90;;;23.02;34.49
53526;BME280;40551;50.478;19.378;2023-05-23T09:40:46;97505.77;;;23.05;34.45
53526;BME280;40551;50.478;19.378;2023-05-23T09:43:18;97500.71;;;23.16;34.96
53526;BME280;40551;50.478;19.378;2023-05-23T09:45:52;97498.29;;;23.24;34.53
53526;BME280;40551;50.478;19.378;2023-05-23T09:48:29;97499.56;;;23.17;34.04
53526;BME280;40551;50.478;19.378;2023-05-23T09:51:04;97496.11;;;23.07;34.32
53526;BME280;40551;50.478;19.378;2023-05-23T09:53:36;97500.30;;;23.01;34.38
53526;BME280;40551;50.478;19.378;2023-05-23T09:56:09;97493.91;;;22.91;34.73
53526;BME280;40551;50.478;19.378;2023-05-23T09:58:46;97489.45;;;22.80;35.08
53526;BME280;40551;50.478;19.378;2023-05-23T10:01:18;97483.73;;;22.88;35.56
53526;BME280;40551;50.478;19.378;2023-05-23T10:03:51;97483.22;;;22.94;35.62
53526;BME280;40551;50.478;19.378;2023-05-23T10:06:33;97480.16;;;23.02;35.67
53526;BME280;40551;50.478;19.378;2023-05-23T10:09:11;97482.39;;;23.13;36.07
53526;BME280;40551;50.478;19.378;2023-05-23T10:14:47;97481.74;;;23.25;36.14
53526;BME280;40551;50.478;19.378;2023-05-23T10:17:28;97486.47;;;23.25;35.67
53526;BME280;40551;50.478;19.378;2023-05-23T10:20:07;97484.05;;;23.20;35.91
53526;BME280;40551;50.478;19.378;2023-05-23T10:22:42;97481.50;;;23.18;35.88
53526;BME280;40551;50.478;19.378;2023-05-23T10:25:14;97476.59;;;23.13;36.15
53526;BME280;40551;50.478;19.378;2023-05-23T10:27:48;97474.92;;;23.12;35.98
53526;BME280;40551;50.478;19.378;2023-05-23T10:30:23;97468.16;;;23.11;35.87
53526;BME280;40551;50.478;19.378;2023-05-23T10:32:55;97467.69;;;23.16;35.98
53526;BME280;40551;50.478;19.378;2023-05-23T10:35:39;97466.27;;;23.20;35.76
53526;BME280;40551;50.478;19.378;2023-05-23T10:38:20;97461.89;;;23.25;35.80
53526;BME280;40551;50.478;19.378;2023-05-23T10:41:00;97460.76;;;23.33;35.38
53526;BME280;40551;50.478;19.378;2023-05-23T10:43:39;97459.42;;;23.33;35.31
53526;BME280;40551;50.478;19.378;2023-05-23T10:46:14;97461.23;;;23.43;35.71
53526;BME280;40551;50.478;19.378;2023-05-23T10:48:46;97462.52;;;23.46;35.37
53526;BME280;40551;50.478;19.378;2023-05-23T10:51:17;97463.45;;;23.44;34.96
53526;BME280;40551;50.478;19.378;2023-05-23T10:53:54;97464.05;;;23.43;34.90
53526;BME280;40551;50.478;19.378;2023-05-23T10:56:30;97466.69;;;23.41;34.78
53526;BME280;40551;50.478;19.378;2023-05-23T10:59:04;97465.64;;;23.41;34.82
53526;BME280;40551;50.478;19.378;2023-05-23T11:01:39;97463.13;;;23.38;34.50
53526;BME280;40551;50.478;19.378;2023-05-23T11:04:12;97460.34;;;23.42;34.90
53526;BME280;40551;50.478;19.378;2023-05-23T11:06:44;97459.83;;;23.55;34.64
53526;BME280;40551;50.478;19.378;2023-05-23T11:09:18;97458.88;;;23.55;34.20
53526;BME280;40551;50.478;19.378;2023-05-23T11:12:01;97454.36;;;23.56;34.10
53526;BME280;40551;50.478;19.378;2023-05-23T11:14:51;97446.20;;;23.60;34.59
53526;BME280;40551;50.478;19.378;2023-05-23T11:17:32;97448.74;;;23.60;33.63
53526;BME280;40551;50.478;19.378;2023-05-23T11:20:05;97450.90;;;23.53;34.29
53526;BME280;40551;50.478;19.378;2023-05-23T11:22:37;97454.23;;;23.54;33.90
53526;BME280;40551;50.478;19.378;2023-05-23T11:25:10;97452.09;;;23.58;34.10
53526;BME280;40551;50.478;19.378;2023-05-23T11:27:44;97451.80;;;23.66;33.88
53526;BME280;40551;50.478;19.378;2023-05-23T11:30:17;97443.40;;;23.70;33.86
53526;BME280;40551;50.478;19.378;2023-05-23T11:32:52;97439.17;;;23.83;34.61
53526;BME280;40551;50.478;19.378;2023-05-23T11:35:25;97439.88;;;24.07;35.40
53526;BME280;40551;50.478;19.378;2023-05-23T11:37:58;97437.25;;;24.36;34.75
53526;BME280;40551;50.478;19.378;2023-05-23T11:40:31;97435.64;;;24.51;33.72
53526;BME280;40551;50.478;19.378;2023-05-23T11:43:04;97430.39;;;24.54;33.03
53526;BME280;40551;50.478;19.378;2023-05-23T11:45:37;97424.80;;;24.59;33.50
53526;BME280;40551;50.478;19.378;2023-05-23T11:48:10;97424.37;;;24.62;32.76
53526;BME280;40551;50.478;19.378;2023-05-23T11:50:46;97427.19;;;24.56;32.58
53526;BME280;40551;50.478;19.378;2023-05-23T11:53:19;97424.46;;;24.49;32.19
53526;BME280;40551;50.478;19.378;2023-05-23T11:55:52;97424.48;;;24.36;32.23
53526;BME280;40551;50.478;19.378;2023-05-23T11:58:28;97423.80;;;24.25;32.90
53526;BME280;40551;50.478;19.378;2023-05-23T12:01:03;97423.30;;;24.23;33.25
53526;BME280;40551;50.478;19.378;2023-05-23T12:03:45;97423.02;;;24.19;33.49
53526;BME280;40551;50.478;19.378;2023-05-23T12:06:18;97422.02;;;24.12;33.34
53526;BME280;40551;50.478;19.378;2023-05-23T12:08:51;97421.41;;;24.06;33.45
53526;BME280;40551;50.478;19.378;2023-05-23T12:11:23;97420.30;;;24.01;33.70
53526;BME280;40551;50.478;19.378;2023-05-23T12:13:56;97421.20;;;24.01;34.64
53526;BME280;40551;50.478;19.378;2023-05-23T12:16:29;97422.49;;;24.04;34.30
53526;BME280;40551;50.478;19.378;2023-05-23T12:19:03;97425.41;;;23.99;34.15
53526;BME280;40551;50.478;19.378;2023-05-23T12:21:45;97422.75;;;23.87;33.87
53526;BME280;40551;50.478;19.378;2023-05-23T12:24:18;97424.78;;;23.76;34.24
53526;BME280;40551;50.478;19.378;2023-05-23T12:26:52;97415.27;;;23.75;34.78
53526;BME280;40551;50.478;19.378;2023-05-23T12:29:30;97413.80;;;23.80;35.15
53526;BME280;40551;50.478;19.378;2023-05-23T12:32:05;97416.70;;;23.85;34.89
53526;BME280;40551;50.478;19.378;2023-05-23T12:34:43;97417.89;;;23.89;34.26
53526;BME280;40551;50.478;19.378;2023-05-23T12:37:15;97414.58;;;23.83;34.35
53526;BME280;40551;50.478;19.378;2023-05-23T12:39:50;97417.56;;;23.79;34.15
53526;BME280;40551;50.478;19.378;2023-05-23T12:42:27;97415.42;;;23.76;34.41
53526;BME280;40551;50.478;19.378;2023-05-23T12:45:02;97413.20;;;23.79;34.49
53526;BME280;40551;50.478;19.378;2023-05-23T12:47:36;97412.92;;;23.83;34.20
53526;BME280;40551;50.478;19.378;2023-05-23T12:50:08;97413.42;;;23.78;33.95
53526;BME280;40551;50.478;19.378;2023-05-23T12:52:41;97415.80;;;23.76;34.15
53526;BME280;40551;50.478;19.378;2023-05-23T12:55:13;97412.10;;;23.75;34.10
53526;BME280;40551;50.478;19.378;2023-05-23T12:57:44;97410.75;;;23.77;34.68
53526;BME280;40551;50.478;19.378;2023-05-23T13:00:17;97409.94;;;23.83;34.22
53526;BME280;40551;50.478;19.378;2023-05-23T13:02:49;97412.33;;;23.89;34.67
53526;BME280;40551;50.478;19.378;2023-05-23T13:05:21;97412.38;;;23.96;34.32
53526;BME280;40551;50.478;19.378;2023-05-23T13:07:53;97409.70;;;23.98;34.01
53526;BME280;40551;50.478;19.378;2023-05-23T13:10:25;97402.92;;;23.97;33.59
53526;BME280;40551;50.478;19.378;2023-05-23T13:13:00;97407.45;;;23.90;33.39
53526;BME280;40551;50.478;19.378;2023-05-23T13:15:32;97407.07;;;23.87;33.79
53526;BME280;40551;50.478;19.378;2023-05-23T13:18:04;97401.40;;;23.88;34.13
53526;BME280;40551;50.478;19.378;2023-05-23T13:20:36;97399.36;;;23.90;34.07
53526;BME280;40551;50.478;19.378;2023-05-23T13:23:07;97397.13;;;23.87;33.87
53526;BME280;40551;50.478;19.378;2023-05-23T13:25:39;97399.45;;;23.82;34.01
53526;BME280;40551;50.478;19.378;2023-05-23T13:28:11;97398.10;;;23.81;34.38
53526;BME280;40551;50.478;19.378;2023-05-23T13:30:43;97402.72;;;23.83;34.72
53526;BME280;40551;50.478;19.378;2023-05-23T13:33:17;97410.16;;;23.87;35.00
53526;BME280;40551;50.478;19.378;2023-05-23T13:35:49;97409.20;;;23.83;34.63